Marlov Senior — LK6889 — position and weather

sailwx.info

Track history (hours):
 
Tides and Currents Weather Stations Pressure Air Temp Water Temp Dewpoint Dewpoint Depression Visibility Wind Speed Wind Dir Waves Ship Positions

Marlov Senior

Last reported at 2017-Nov-16 09:06 UTC. Time now 2017-Nov-21 19:25 UTC.
Position N 71°09' E 026°17'.

Length 14 m.

Type: Fishing. MMSI: 257074140.

Date/timePositionNaut miles runAvg speedWind from/ knotsBaromVisibWave heightAir tempDewpointWater temp
2017-Nov-16 09:06N 71°09' E 026°17'0 0.2
2017-Nov-16 09:00N 71°09' E 026°17'0 0.9
2017-Nov-16 08:29N 71°09' E 026°16'1 2.1
2017-Nov-16 08:00N 71°08' E 026°13'0 0.5
2017-Nov-16 07:29N 71°08' E 026°14'1 1.3
2017-Nov-16 07:00N 71°08' E 026°12'0 0.6
2017-Nov-16 06:29N 71°08' E 026°12'0 0.9
2017-Nov-16 06:00N 71°08' E 026°13'3 5.5
2017-Nov-16 05:30N 71°06' E 026°07'4 8.3
2017-Nov-16 05:00N 71°04' E 025°57'1 2.8
2017-Nov-16 04:30N 71°03' E 025°54'0 0.0
2017-Nov-16 04:00N 71°03' E 025°54'0 0.0
2017-Nov-16 03:30N 71°03' E 025°54'0 0.0
2017-Nov-16 03:00N 71°03' E 025°54'0 0.0
2017-Nov-16 02:30N 71°03' E 025°54'0 0.0
2017-Nov-16 02:00N 71°03' E 025°54'0 0.0
2017-Nov-16 01:30N 71°03' E 025°54'0 0.0
2017-Nov-16 01:00N 71°03' E 025°54'0 0.0
2017-Nov-16 00:30N 71°03' E 025°54'0 0.0
2017-Nov-16 00:00N 71°03' E 025°54'0 0.0
2017-Nov-15 23:30N 71°03' E 025°54'0 0.0
2017-Nov-15 23:00N 71°03' E 025°54'0 0.0
2017-Nov-15 22:27N 71°03' E 025°54'0 0.0
2017-Nov-15 22:00N 71°03' E 025°54'0 0.0
2017-Nov-15 21:27N 71°03' E 025°54'0 0.0
2017-Nov-15 21:00N 71°03' E 025°54'0 0.0
2017-Nov-15 20:30N 71°03' E 025°54'0 0.0
2017-Nov-15 19:57N 71°03' E 025°54'0 0.0
2017-Nov-15 19:30N 71°03' E 025°54'0 0.0
2017-Nov-15 19:00N 71°03' E 025°54'0 0.0
2017-Nov-15 18:30N 71°03' E 025°54'0 0.0
2017-Nov-15 18:00N 71°03' E 025°54'0 0.0
2017-Nov-15 17:30N 71°03' E 025°54'0 0.0
2017-Nov-15 17:00N 71°03' E 025°54'0 0.0
2017-Nov-15 16:30N 71°03' E 025°54'0 0.0
2017-Nov-15 16:00N 71°03' E 025°54'0 0.0
2017-Nov-15 15:30N 71°03' E 025°54'0 0.0
2017-Nov-15 15:00N 71°03' E 025°54'0 0.0
2017-Nov-15 14:27N 71°03' E 025°54'0 0.0
2017-Nov-15 14:00N 71°03' E 025°54'0 0.0
2017-Nov-15 13:30N 71°03' E 025°54'0 0.0
2017-Nov-15 13:00N 71°03' E 025°54'0 0.0
2017-Nov-15 12:30N 71°03' E 025°54'0 0.0
2017-Nov-15 12:00N 71°03' E 025°54'0 0.0
2017-Nov-15 11:27N 71°03' E 025°54'0 0.8
2017-Nov-15 11:00N 71°03' E 025°54'4 7.8
2017-Nov-15 10:30N 71°05' E 026°03'4 8.0
2017-Nov-15 09:59N 71°08' E 026°13'2 3.3
2017-Nov-15 09:30N 71°09' E 026°17'0 0.4
2017-Nov-15 09:00N 71°09' E 026°17'0 0.2
2017-Nov-15 08:29N 71°09' E 026°16'1 2.0
2017-Nov-15 08:00N 71°08' E 026°14'0 0.5
2017-Nov-15 07:30N 71°08' E 026°14'0 0.4
2017-Nov-15 07:00N 71°08' E 026°13'0 0.1
2017-Nov-15 06:30N 71°08' E 026°13'0 0.6
2017-Nov-15 06:00N 71°08' E 026°13'3 7.0
2017-Nov-15 05:30N 71°06' E 026°05'4 7.9
2017-Nov-15 05:00N 71°03' E 025°56'1 2.0
2017-Nov-15 04:28N 71°03' E 025°54'0 0.0
2017-Nov-15 03:58N 71°03' E 025°54'0 0.0
2017-Nov-15 03:28N 71°03' E 025°54'0 0.0
2017-Nov-15 02:58N 71°03' E 025°54'0 0.0
2017-Nov-15 02:28N 71°03' E 025°54'0 0.0
2017-Nov-15 01:58N 71°03' E 025°54'0 0.0
2017-Nov-15 01:28N 71°03' E 025°54'0 0.0
2017-Nov-15 00:58N 71°03' E 025°54'0 0.0
2017-Nov-15 00:28N 71°03' E 025°54'0 0.0
2017-Nov-14 23:58N 71°03' E 025°54'0 0.0
2017-Nov-14 23:28N 71°03' E 025°54'0 0.0
2017-Nov-14 22:58N 71°03' E 025°54'0 0.0
2017-Nov-14 22:25N 71°03' E 025°54'0 0.0
2017-Nov-14 21:58N 71°03' E 025°54'0 0.0
2017-Nov-14 21:28N 71°03' E 025°54'0 0.0
2017-Nov-14 20:58N 71°03' E 025°54'0 0.0
2017-Nov-14 20:28N 71°03' E 025°54'0 0.0
2017-Nov-14 19:58N 71°03' E 025°54'0 0.0
2017-Nov-14 19:25N 71°03' E 025°54'0 0.0
2017-Nov-14 18:55N 71°03' E 025°54'0 0.0
2017-Nov-14 18:28N 71°03' E 025°54'0 0.0
2017-Nov-14 17:58N 71°03' E 025°54'0 0.0
2017-Nov-14 17:25N 71°03' E 025°54'0 0.0
2017-Nov-14 16:58N 71°03' E 025°54'0 0.0
2017-Nov-14 16:28N 71°03' E 025°54'0 0.0
2017-Nov-14 15:58N 71°03' E 025°54'0 0.0
2017-Nov-14 15:28N 71°03' E 025°54'0 0.0
2017-Nov-14 14:55N 71°03' E 025°54'0 0.0
2017-Nov-14 14:28N 71°03' E 025°54'0 0.0
2017-Nov-14 13:58N 71°03' E 025°54'0 0.0
2017-Nov-14 13:28N 71°03' E 025°54'0 0.0
2017-Nov-14 12:58N 71°03' E 025°54'0 0.0
2017-Nov-14 12:28N 71°03' E 025°54'0 0.0
2017-Nov-14 11:58N 71°03' E 025°54'0 0.0
2017-Nov-14 11:28N 71°03' E 025°54'0 0.1
2017-Nov-14 10:59N 71°03' E 025°54'1 2.9
2017-Nov-14 10:30N 71°04' E 025°57'4 8.2
2017-Nov-14 10:00N 71°06' E 026°06'4 8.2
2017-Nov-14 09:30N 71°09' E 026°16'1 1.1
2017-Nov-14 09:00N 71°08' E 026°16'0 0.4
2017-Nov-14 08:29N 71°08' E 026°17'0 0.8
2017-Nov-14 08:00N 71°09' E 026°16'1 2.1
2017-Nov-14 07:29N 71°08' E 026°14'0 0.6
2017-Nov-14 07:00N 71°08' E 026°13'0 0.8
2017-Nov-14 06:30N 71°08' E 026°13'0 0.4
2017-Nov-14 06:00N 71°08' E 026°13'3 5.5
2017-Nov-14 05:30N 71°06' E 026°06'4 8.4
2017-Nov-14 05:00N 71°04' E 025°57'1 2.8
2017-Nov-14 04:30N 71°03' E 025°54'0 0.0
2017-Nov-14 04:00N 71°03' E 025°54'0 0.0
2017-Nov-14 03:30N 71°03' E 025°54'0 0.0
2017-Nov-14 03:00N 71°03' E 025°54'0 0.0
2017-Nov-14 02:30N 71°03' E 025°54'0 0.0
2017-Nov-14 02:00N 71°03' E 025°54'0 0.0
2017-Nov-14 01:27N 71°03' E 025°54'0 0.0
2017-Nov-14 01:00N 71°03' E 025°54'0 0.0
2017-Nov-14 00:30N 71°03' E 025°54'0 0.0
2017-Nov-14 00:00N 71°03' E 025°54'0 0.0
2017-Nov-13 23:30N 71°03' E 025°54'0 0.0
2017-Nov-13 23:00N 71°03' E 025°54'0 0.0
2017-Nov-13 22:30N 71°03' E 025°54'0 0.0
2017-Nov-13 22:00N 71°03' E 025°54'0 0.0
2017-Nov-13 01:59N 71°03' E 025°54'0 0.0
2017-Nov-13 01:29N 71°03' E 025°54'0 0.0
2017-Nov-13 00:59N 71°03' E 025°54'0 0.0
2017-Nov-13 00:29N 71°03' E 025°54'0 0.0
2017-Nov-12 23:59N 71°03' E 025°54'0 0.0
2017-Nov-12 23:29N 71°03' E 025°54'0 0.0
2017-Nov-12 22:59N 71°03' E 025°54'0 0.0
2017-Nov-12 22:29N 71°03' E 025°54'0 0.0
2017-Nov-12 21:59N 71°03' E 025°54'0 0.0
2017-Nov-12 21:29N 71°03' E 025°54'0 0.0
2017-Nov-12 20:59N 71°03' E 025°54'0 0.0
2017-Nov-12 20:29N 71°03' E 025°54'0 0.0
2017-Nov-12 19:59N 71°03' E 025°54'0 0.0
2017-Nov-12 19:29N 71°03' E 025°54'0 0.0
2017-Nov-12 18:59N 71°03' E 025°54'0 0.0
2017-Nov-12 18:29N 71°03' E 025°54'0 0.0
2017-Nov-12 17:59N 71°03' E 025°54'0 0.0
2017-Nov-12 17:29N 71°03' E 025°54'0 0.0
2017-Nov-12 16:59N 71°03' E 025°54'0 0.0
2017-Nov-12 16:29N 71°03' E 025°54'0 0.0
2017-Nov-12 15:59N 71°03' E 025°54'0 0.0
2017-Nov-12 15:29N 71°03' E 025°54'0 0.0
2017-Nov-12 14:59N 71°03' E 025°54'0 0.0
2017-Nov-12 14:29N 71°03' E 025°54'0 0.0
2017-Nov-12 13:59N 71°03' E 025°54'0 0.0
2017-Nov-12 13:29N 71°03' E 025°54'0 0.0
2017-Nov-12 12:59N 71°03' E 025°54'0 0.0
2017-Nov-12 12:29N 71°03' E 025°54'0 0.0
2017-Nov-12 11:59N 71°03' E 025°54'0 0.0
2017-Nov-12 11:29N 71°03' E 025°54'0 0.0
2017-Nov-12 10:59N 71°03' E 025°54'0 0.0
2017-Nov-12 10:29N 71°03' E 025°54'0 0.0
2017-Nov-12 09:59N 71°03' E 025°54'0 0.0
2017-Nov-12 09:29N 71°03' E 025°54'0 0.0
2017-Nov-12 08:59N 71°03' E 025°54'0 0.0
2017-Nov-12 08:29N 71°03' E 025°54'0 0.0
2017-Nov-12 07:56N 71°03' E 025°54'0 0.0
2017-Nov-12 07:26N 71°03' E 025°54'0 0.0
2017-Nov-12 06:59N 71°03' E 025°54'0 0.0
2017-Nov-12 06:29N 71°03' E 025°54'0 0.0
2017-Nov-12 05:59N 71°03' E 025°54'0 0.0
2017-Nov-12 05:29N 71°03' E 025°54'0 0.0
2017-Nov-12 04:59N 71°03' E 025°54'0 0.0
2017-Nov-12 04:29N 71°03' E 025°54'0 0.0
2017-Nov-12 03:59N 71°03' E 025°54'0 0.0
2017-Nov-12 03:29N 71°03' E 025°54'0 0.0
2017-Nov-12 02:59N 71°03' E 025°54'0 0.0
2017-Nov-12 02:29N 71°03' E 025°54'0 0.0
2017-Nov-12 01:59N 71°03' E 025°54'0 0.0
2017-Nov-12 01:29N 71°03' E 025°54'0 0.0
2017-Nov-12 00:56N 71°03' E 025°54'0 0.0
2017-Nov-12 00:29N 71°03' E 025°54'0 0.0
2017-Nov-11 23:59N 71°03' E 025°54'0 0.0
2017-Nov-11 23:29N 71°03' E 025°54'0 0.0
2017-Nov-11 22:59N 71°03' E 025°54'0 0.0
2017-Nov-11 22:29N 71°03' E 025°54'0 0.0
2017-Nov-11 21:59N 71°03' E 025°54'0 0.0
2017-Nov-11 21:29N 71°03' E 025°54'0 0.0
2017-Nov-11 20:59N 71°03' E 025°54'0 0.0
2017-Nov-11 20:29N 71°03' E 025°54'0 0.0
2017-Nov-11 19:59N 71°03' E 025°54'0 0.0
2017-Nov-11 19:29N 71°03' E 025°54'0 0.0
2017-Nov-11 18:59N 71°03' E 025°54'0 0.0
2017-Nov-11 18:29N 71°03' E 025°54'0 0.0
2017-Nov-11 17:59N 71°03' E 025°54'0 0.0
2017-Nov-11 17:29N 71°03' E 025°54'0 0.0
2017-Nov-11 16:59N 71°03' E 025°54'0 0.0
2017-Nov-11 16:26N 71°03' E 025°54'0 0.0
2017-Nov-11 15:56N 71°03' E 025°54'0 0.0
2017-Nov-11 15:29N 71°03' E 025°54'0 0.0
2017-Nov-11 14:59N 71°03' E 025°54'0 0.0
2017-Nov-11 14:29N 71°03' E 025°54'0 0.0
2017-Nov-11 13:59N 71°03' E 025°54'0 0.0
2017-Nov-11 13:29N 71°03' E 025°54'0 0.0
2017-Nov-11 12:59N 71°03' E 025°54'0 0.0
2017-Nov-11 12:29N 71°03' E 025°54'0 0.0
2017-Nov-11 11:59N 71°03' E 025°54'0 0.0
2017-Nov-11 11:29N 71°03' E 025°54'0 0.0
2017-Nov-11 10:59N 71°03' E 025°54'0 0.0
2017-Nov-11 10:29N 71°03' E 025°54'0 0.0
2017-Nov-11 09:59N 71°03' E 025°54'0 0.0
2017-Nov-11 09:29N 71°03' E 025°54'0 0.0
2017-Nov-11 08:59N 71°03' E 025°54'0 0.0
2017-Nov-11 08:29N 71°03' E 025°54'0 0.0
2017-Nov-11 07:59N 71°03' E 025°54'0 0.0
2017-Nov-11 07:29N 71°03' E 025°54'0 0.0
2017-Nov-11 06:59N 71°03' E 025°54'0 0.0
2017-Nov-11 06:29N 71°03' E 025°54'0 0.0
2017-Nov-11 05:59N 71°03' E 025°54'0 0.0
2017-Nov-11 05:29N 71°03' E 025°54'0 0.0
2017-Nov-11 04:59N 71°03' E 025°54'0 0.0
2017-Nov-11 04:29N 71°03' E 025°54'0 0.0
2017-Nov-11 03:59N 71°03' E 025°54'0 0.0
2017-Nov-11 03:29N 71°03' E 025°54'0 0.0
2017-Nov-11 02:59N 71°03' E 025°54'0 0.0
2017-Nov-11 02:29N 71°03' E 025°54'0 0.0
2017-Nov-11 01:59N 71°03' E 025°54'0 0.0
2017-Nov-11 01:29N 71°03' E 025°54'0 0.0
2017-Nov-11 00:59N 71°03' E 025°54'0 0.0
2017-Nov-11 00:29N 71°03' E 025°54'0 0.0
2017-Nov-10 23:59N 71°03' E 025°54'0 0.0
2017-Nov-10 23:29N 71°03' E 025°54'0 0.0
2017-Nov-10 23:00N 71°03' E 025°54'0 0.0
2017-Nov-10 22:30N 71°03' E 025°54'0 0.0
2017-Nov-10 21:59N 71°03' E 025°54'0 0.0
2017-Nov-10 21:30N 71°03' E 025°54'0 0.0
2017-Nov-10 21:00N 71°03' E 025°54'0 0.0
2017-Nov-10 20:30N 71°03' E 025°54'0 0.0
2017-Nov-10 20:00N 71°03' E 025°54'0 0.0
2017-Nov-10 19:30N 71°03' E 025°54'0 0.0
2017-Nov-10 19:00N 71°03' E 025°54'0 0.0
2017-Nov-10 18:30N 71°03' E 025°54'0 0.0
2017-Nov-10 18:00N 71°03' E 025°54'0 0.0
2017-Nov-10 17:30N 71°03' E 025°54'0 0.0
2017-Nov-10 17:00N 71°03' E 025°54'0 0.0
2017-Nov-10 16:27N 71°03' E 025°54'0 0.0
2017-Nov-10 16:00N 71°03' E 025°54'0 0.0
2017-Nov-10 15:30N 71°03' E 025°54'0 0.0
2017-Nov-10 15:00N 71°03' E 025°54'0 0.0
2017-Nov-10 14:30N 71°03' E 025°54'0 0.0
2017-Nov-10 14:00N 71°03' E 025°54'0 0.0
2017-Nov-10 13:27N 71°03' E 025°54'0 0.0
2017-Nov-10 13:00N 71°03' E 025°54'0 0.0
2017-Nov-10 12:30N 71°03' E 025°54'0 0.0
2017-Nov-10 12:00N 71°03' E 025°54'0 0.0
2017-Nov-10 11:30N 71°03' E 025°54'0 0.0
2017-Nov-10 10:59N 71°03' E 025°54'2 3.5
2017-Nov-10 10:30N 71°04' E 025°57'4 7.6
2017-Nov-10 09:59N 71°06' E 026°08'3 5.8
2017-Nov-10 09:30N 71°08' E 026°15'1 1.1
2017-Nov-10 09:00N 71°08' E 026°13'2 3.2
2017-Nov-10 08:29N 71°08' E 026°18'0 0.9
2017-Nov-10 07:59N 71°09' E 026°17'0 0.5
2017-Nov-10 07:30N 71°09' E 026°17'1 1.6
2017-Nov-10 07:00N 71°08' E 026°19'0 0.8
2017-Nov-10 06:29N 71°09' E 026°18'1 1.2
2017-Nov-10 05:59N 71°09' E 026°16'4 8.1
2017-Nov-10 05:30N 71°06' E 026°06'4 8.2
2017-Nov-10 05:00N 71°04' E 025°57'1 2.7
2017-Nov-10 04:30N 71°03' E 025°54'0 0.0
2017-Nov-10 04:00N 71°03' E 025°54'0 0.0
2017-Nov-10 03:30N 71°03' E 025°54'0 0.0
2017-Nov-10 03:00N 71°03' E 025°54'0 0.0
2017-Nov-10 02:30N 71°03' E 025°54'0 0.0
2017-Nov-10 02:00N 71°03' E 025°54'0 0.0
2017-Nov-10 01:31N 71°03' E 025°54'0 0.0
2017-Nov-10 01:00N 71°03' E 025°54'0 0.0
2017-Nov-10 00:30N 71°03' E 025°54'0 0.0
2017-Nov-10 00:01N 71°03' E 025°54'0 0.0
2017-Nov-09 23:30N 71°03' E 025°54'0 0.0
2017-Nov-09 23:00N 71°03' E 025°54'0 0.0
2017-Nov-09 22:30N 71°03' E 025°54'0 0.0
2017-Nov-09 22:00N 71°03' E 025°54'0 0.0
2017-Nov-09 21:31N 71°03' E 025°54'0 0.0
2017-Nov-09 21:01N 71°03' E 025°54'0 0.0
2017-Nov-09 20:30N 71°03' E 025°54'0 0.0
2017-Nov-09 20:01N 71°03' E 025°54'0 0.0
2017-Nov-09 19:31N 71°03' E 025°54'0 0.0
2017-Nov-09 19:01N 71°03' E 025°54'0 0.0
2017-Nov-09 18:25N 71°03' E 025°54'0 0.0
2017-Nov-09 17:58N 71°03' E 025°54'0 0.0
2017-Nov-09 17:28N 71°03' E 025°54'0 0.0
2017-Nov-09 17:01N 71°03' E 025°54'0 0.0
2017-Nov-09 16:28N 71°03' E 025°54'0 0.0
2017-Nov-09 15:58N 71°03' E 025°54'0 0.0
2017-Nov-09 15:28N 71°03' E 025°54'0 0.0
2017-Nov-09 14:58N 71°03' E 025°54'0 0.0
2017-Nov-09 14:25N 71°03' E 025°54'0 0.0
2017-Nov-09 13:58N 71°03' E 025°54'0 0.0
2017-Nov-09 13:28N 71°03' E 025°54'0 0.0
2017-Nov-09 12:58N 71°03' E 025°54'0 0.0
2017-Nov-09 12:28N 71°03' E 025°54'0 0.0
2017-Nov-09 11:58N 71°03' E 025°54'0 0.0
2017-Nov-09 11:28N 71°03' E 025°54'0 0.0
2017-Nov-09 10:58N 71°03' E 025°54'0 0.2
2017-Nov-09 10:30N 71°03' E 025°54'4 8.0
2017-Nov-09 10:00N 71°05' E 026°02'4 7.6
2017-Nov-09 09:30N 71°08' E 026°12'1 2.3
2017-Nov-09 08:59N 71°09' E 026°13'0 0.7
2017-Nov-09 08:30N 71°09' E 026°12'1 2.0
2017-Nov-09 08:00N 71°08' E 026°14'0 0.4
2017-Nov-09 07:28N 71°08' E 026°13'1 2.1
2017-Nov-09 07:00N 71°09' E 026°15'1 1.5
2017-Nov-09 06:30N 71°09' E 026°17'0 0.3
2017-Nov-09 06:00N 71°09' E 026°17'4 8.2
2017-Nov-09 05:30N 71°06' E 026°07'4 8.4
2017-Nov-09 05:00N 71°04' E 025°57'1 2.9
2017-Nov-09 04:30N 71°03' E 025°54'0 0.0
2017-Nov-09 04:00N 71°03' E 025°54'0 0.0
2017-Nov-09 03:30N 71°03' E 025°54'0 0.0
2017-Nov-09 03:00N 71°03' E 025°54'0 0.0
2017-Nov-09 02:30N 71°03' E 025°54'0 0.0
2017-Nov-09 02:00N 71°03' E 025°54'0 0.0
2017-Nov-09 01:24N 71°03' E 025°54'0 0.0
2017-Nov-09 01:00N 71°03' E 025°54'0 0.0
2017-Nov-09 00:30N 71°03' E 025°54'0 0.0
2017-Nov-09 00:00N 71°03' E 025°54'0 0.0
2017-Nov-08 23:30N 71°03' E 025°54'0 0.0
2017-Nov-08 23:00N 71°03' E 025°54'0 0.0
2017-Nov-08 22:30N 71°03' E 025°54'0 0.0
2017-Nov-08 22:00N 71°03' E 025°54'0 0.0
2017-Nov-08 21:30N 71°03' E 025°54'0 0.0
2017-Nov-08 21:00N 71°03' E 025°54'0 0.0
2017-Nov-08 20:30N 71°03' E 025°54'0 0.0
2017-Nov-08 20:00N 71°03' E 025°54'0 0.0
2017-Nov-08 19:30N 71°03' E 025°54'0 0.0
2017-Nov-08 19:00N 71°03' E 025°54'0 0.0
2017-Nov-08 18:30N 71°03' E 025°54'0 0.0
2017-Nov-08 18:00N 71°03' E 025°54'0 0.0
2017-Nov-08 17:30N 71°03' E 025°54'0 0.0
2017-Nov-08 17:00N 71°03' E 025°54'0 0.0
2017-Nov-08 16:30N 71°03' E 025°54'0 0.0
2017-Nov-08 16:00N 71°03' E 025°54'0 0.0
2017-Nov-08 15:30N 71°03' E 025°54'0 0.0
2017-Nov-08 15:00N 71°03' E 025°54'0 0.0
2017-Nov-08 14:30N 71°03' E 025°54'0 0.0
2017-Nov-08 13:30N 71°03' E 025°54'0 0.0
2017-Nov-08 12:36N 71°03' E 025°54'0 0.0
2017-Nov-08 12:27N 71°03' E 025°54'0 0.0
2017-Nov-08 11:48N 71°03' E 025°54'8 3.1
2017-Nov-08 09:05N 71°08' E 026°13'0 2.1
2017-Nov-08 09:00N 71°08' E 026°14'0 0.2
2017-Nov-08 08:30N 71°08' E 026°14'1 1.2
2017-Nov-08 08:00N 71°09' E 026°13'0 0.3
2017-Nov-08 07:30N 71°09' E 026°12'1 1.1
2017-Nov-08 07:00N 71°09' E 026°14'1 1.8
2017-Nov-08 06:30N 71°09' E 026°17'0 0.6
2017-Nov-08 06:00N 71°09' E 026°16'4 8.2
2017-Nov-08 05:29N 71°06' E 026°06'4 8.2
2017-Nov-08 05:00N 71°04' E 025°57'1 2.6
2017-Nov-08 04:28N 71°03' E 025°54'0 0.0
2017-Nov-08 03:58N 71°03' E 025°54'0 0.0
2017-Nov-08 03:28N 71°03' E 025°54'0 0.0
2017-Nov-08 02:58N 71°03' E 025°54'0 0.0
2017-Nov-08 02:28N 71°03' E 025°54'0 0.0
2017-Nov-08 01:58N 71°03' E 025°54'0 0.0
2017-Nov-08 01:28N 71°03' E 025°54'0 0.0
2017-Nov-08 00:58N 71°03' E 025°54'0 0.0
2017-Nov-08 00:28N 71°03' E 025°54'0 0.0
2017-Nov-07 22:40N 71°03' E 025°54'0 0.0
2017-Nov-07 22:28N 71°03' E 025°54'0 0.0
2017-Nov-07 21:58N 71°03' E 025°54'0 0.0
2017-Nov-07 21:28N 71°03' E 025°54'0 0.0
2017-Nov-07 20:58N 71°03' E 025°54'0 0.0
2017-Nov-07 20:28N 71°03' E 025°54'0 0.0
2017-Nov-07 19:58N 71°03' E 025°54'0 0.0
2017-Nov-07 19:28N 71°03' E 025°54'0 0.0
2017-Nov-07 18:58N 71°03' E 025°54'0 0.0
2017-Nov-07 18:28N 71°03' E 025°54'0 0.0
2017-Nov-07 17:58N 71°03' E 025°54'0 0.0
2017-Nov-07 17:28N 71°03' E 025°54'0 0.0
2017-Nov-07 16:58N 71°03' E 025°54'0 0.0
2017-Nov-07 16:28N 71°03' E 025°54'0 0.0
2017-Nov-07 15:58N 71°03' E 025°54'0 0.0
2017-Nov-07 15:25N 71°03' E 025°54'0 0.0
2017-Nov-07 14:58N 71°03' E 025°54'0 0.0
2017-Nov-07 14:28N 71°03' E 025°54'0 0.0
2017-Nov-07 13:55N 71°03' E 025°54'1 1.8
2017-Nov-07 13:30N 71°03' E 025°55'4 8.4
2017-Nov-07 13:00N 71°06' E 026°05'4 7.0
2017-Nov-07 12:29N 71°08' E 026°14'1 2.3
2017-Nov-07 12:00N 71°09' E 026°16'3 4.9
2017-Nov-07 11:29N 71°07' E 026°10'4 7.5
2017-Nov-07 11:00N 71°05' E 026°02'3 6.6
2017-Nov-07 10:29N 71°03' E 025°54'0 0.0
2017-Nov-07 09:56N 71°03' E 025°54'0 0.0
2017-Nov-07 09:29N 71°03' E 025°54'0 0.0
2017-Nov-07 08:59N 71°03' E 025°54'0 0.0
2017-Nov-07 08:26N 71°03' E 025°54'0 0.0
2017-Nov-07 07:53N 71°03' E 025°54'0 0.0
2017-Nov-07 07:29N 71°03' E 025°54'0 0.0
2017-Nov-07 06:59N 71°03' E 025°54'0 0.0
2017-Nov-07 06:29N 71°03' E 025°54'0 0.0
2017-Nov-07 05:59N 71°03' E 025°54'0 0.0
2017-Nov-07 05:29N 71°03' E 025°54'0 0.0
2017-Nov-07 04:59N 71°03' E 025°54'0 0.0
2017-Nov-07 04:29N 71°03' E 025°54'0 0.0
2017-Nov-07 03:59N 71°03' E 025°54'0 0.0
2017-Nov-07 03:29N 71°03' E 025°54'0 0.0
2017-Nov-07 02:59N 71°03' E 025°54'0 0.0
2017-Nov-07 02:29N 71°03' E 025°54'0 0.0
2017-Nov-07 01:59N 71°03' E 025°54'0 0.0
2017-Nov-07 01:26N 71°03' E 025°54'0 0.0
2017-Nov-07 00:59N 71°03' E 025°54'0 0.0
2017-Nov-07 00:23N 71°03' E 025°54'0 0.0
2017-Nov-06 23:59N 71°03' E 025°54'0 0.0
2017-Nov-06 23:29N 71°03' E 025°54'0 0.0
2017-Nov-06 22:59N 71°03' E 025°54'0 0.0
2017-Nov-06 22:29N 71°03' E 025°54'0 0.0
2017-Nov-06 21:59N 71°03' E 025°54'0 0.0
2017-Nov-06 21:29N 71°03' E 025°54'0 0.0
2017-Nov-06 20:59N 71°03' E 025°54'0 0.0
2017-Nov-06 20:29N 71°03' E 025°54'  
Track history (hours):
 
Tides and Currents Weather Stations Pressure Air Temp Water Temp Dewpoint Dewpoint Depression Visibility Wind Speed Wind Dir Waves Ship Positions

Marlov Senior

Last reported at 2017-Nov-16 09:06 UTC. Time now 2017-Nov-21 19:25 UTC.
Position N 71°09' E 026°17'.

Length 14 m.

Type: Fishing. MMSI: 257074140.

Date/timePositionNaut miles runAvg speedWind from/ knotsBaromVisibWave heightAir tempDewpointWater temp
2017-Nov-16 09:06N 71°09' E 026°17'0 0.2
2017-Nov-16 09:00N 71°09' E 026°17'0 0.9
2017-Nov-16 08:29N 71°09' E 026°16'1 2.1
2017-Nov-16 08:00N 71°08' E 026°13'0 0.5
2017-Nov-16 07:29N 71°08' E 026°14'1 1.3
2017-Nov-16 07:00N 71°08' E 026°12'0 0.6
2017-Nov-16 06:29N 71°08' E 026°12'0 0.9
2017-Nov-16 06:00N 71°08' E 026°13'3 5.5
2017-Nov-16 05:30N 71°06' E 026°07'4 8.3
2017-Nov-16 05:00N 71°04' E 025°57'1 2.8
2017-Nov-16 04:30N 71°03' E 025°54'0 0.0
2017-Nov-16 04:00N 71°03' E 025°54'0 0.0
2017-Nov-16 03:30N 71°03' E 025°54'0 0.0
2017-Nov-16 03:00N 71°03' E 025°54'0 0.0
2017-Nov-16 02:30N 71°03' E 025°54'0 0.0
2017-Nov-16 02:00N 71°03' E 025°54'0 0.0
2017-Nov-16 01:30N 71°03' E 025°54'0 0.0
2017-Nov-16 01:00N 71°03' E 025°54'0 0.0
2017-Nov-16 00:30N 71°03' E 025°54'0 0.0
2017-Nov-16 00:00N 71°03' E 025°54'0 0.0
2017-Nov-15 23:30N 71°03' E 025°54'0 0.0
2017-Nov-15 23:00N 71°03' E 025°54'0 0.0
2017-Nov-15 22:27N 71°03' E 025°54'0 0.0
2017-Nov-15 22:00N 71°03' E 025°54'0 0.0
2017-Nov-15 21:27N 71°03' E 025°54'0 0.0
2017-Nov-15 21:00N 71°03' E 025°54'0 0.0
2017-Nov-15 20:30N 71°03' E 025°54'0 0.0
2017-Nov-15 19:57N 71°03' E 025°54'0 0.0
2017-Nov-15 19:30N 71°03' E 025°54'0 0.0
2017-Nov-15 19:00N 71°03' E 025°54'0 0.0
2017-Nov-15 18:30N 71°03' E 025°54'0 0.0
2017-Nov-15 18:00N 71°03' E 025°54'0 0.0
2017-Nov-15 17:30N 71°03' E 025°54'0 0.0
2017-Nov-15 17:00N 71°03' E 025°54'0 0.0
2017-Nov-15 16:30N 71°03' E 025°54'0 0.0
2017-Nov-15 16:00N 71°03' E 025°54'0 0.0
2017-Nov-15 15:30N 71°03' E 025°54'0 0.0
2017-Nov-15 15:00N 71°03' E 025°54'0 0.0
2017-Nov-15 14:27N 71°03' E 025°54'0 0.0
2017-Nov-15 14:00N 71°03' E 025°54'0 0.0
2017-Nov-15 13:30N 71°03' E 025°54'0 0.0
2017-Nov-15 13:00N 71°03' E 025°54'0 0.0
2017-Nov-15 12:30N 71°03' E 025°54'0 0.0
2017-Nov-15 12:00N 71°03' E 025°54'0 0.0
2017-Nov-15 11:27N 71°03' E 025°54'0 0.8
2017-Nov-15 11:00N 71°03' E 025°54'4 7.8
2017-Nov-15 10:30N 71°05' E 026°03'4 8.0
2017-Nov-15 09:59N 71°08' E 026°13'2 3.3
2017-Nov-15 09:30N 71°09' E 026°17'0 0.4
2017-Nov-15 09:00N 71°09' E 026°17'0 0.2
2017-Nov-15 08:29N 71°09' E 026°16'1 2.0
2017-Nov-15 08:00N 71°08' E 026°14'0 0.5
2017-Nov-15 07:30N 71°08' E 026°14'0 0.4
2017-Nov-15 07:00N 71°08' E 026°13'0 0.1
2017-Nov-15 06:30N 71°08' E 026°13'0 0.6
2017-Nov-15 06:00N 71°08' E 026°13'3 7.0
2017-Nov-15 05:30N 71°06' E 026°05'4 7.9
2017-Nov-15 05:00N 71°03' E 025°56'1 2.0
2017-Nov-15 04:28N 71°03' E 025°54'0 0.0
2017-Nov-15 03:58N 71°03' E 025°54'0 0.0
2017-Nov-15 03:28N 71°03' E 025°54'0 0.0
2017-Nov-15 02:58N 71°03' E 025°54'0 0.0
2017-Nov-15 02:28N 71°03' E 025°54'0 0.0
2017-Nov-15 01:58N 71°03' E 025°54'0 0.0
2017-Nov-15 01:28N 71°03' E 025°54'0 0.0
2017-Nov-15 00:58N 71°03' E 025°54'0 0.0
2017-Nov-15 00:28N 71°03' E 025°54'0 0.0
2017-Nov-14 23:58N 71°03' E 025°54'0 0.0
2017-Nov-14 23:28N 71°03' E 025°54'0 0.0
2017-Nov-14 22:58N 71°03' E 025°54'0 0.0
2017-Nov-14 22:25N 71°03' E 025°54'0 0.0
2017-Nov-14 21:58N 71°03' E 025°54'0 0.0
2017-Nov-14 21:28N 71°03' E 025°54'0 0.0
2017-Nov-14 20:58N 71°03' E 025°54'0 0.0
2017-Nov-14 20:28N 71°03' E 025°54'0 0.0
2017-Nov-14 19:58N 71°03' E 025°54'0 0.0
2017-Nov-14 19:25N 71°03' E 025°54'0 0.0
2017-Nov-14 18:55N 71°03' E 025°54'0 0.0
2017-Nov-14 18:28N 71°03' E 025°54'0 0.0
2017-Nov-14 17:58N 71°03' E 025°54'0 0.0
2017-Nov-14 17:25N 71°03' E 025°54'0 0.0
2017-Nov-14 16:58N 71°03' E 025°54'0 0.0
2017-Nov-14 16:28N 71°03' E 025°54'0 0.0
2017-Nov-14 15:58N 71°03' E 025°54'0 0.0
2017-Nov-14 15:28N 71°03' E 025°54'0 0.0
2017-Nov-14 14:55N 71°03' E 025°54'0 0.0
2017-Nov-14 14:28N 71°03' E 025°54'0 0.0
2017-Nov-14 13:58N 71°03' E 025°54'0 0.0
2017-Nov-14 13:28N 71°03' E 025°54'0 0.0
2017-Nov-14 12:58N 71°03' E 025°54'0 0.0
2017-Nov-14 12:28N 71°03' E 025°54'0 0.0
2017-Nov-14 11:58N 71°03' E 025°54'0 0.0
2017-Nov-14 11:28N 71°03' E 025°54'0 0.1
2017-Nov-14 10:59N 71°03' E 025°54'1 2.9
2017-Nov-14 10:30N 71°04' E 025°57'4 8.2
2017-Nov-14 10:00N 71°06' E 026°06'4 8.2
2017-Nov-14 09:30N 71°09' E 026°16'1 1.1
2017-Nov-14 09:00N 71°08' E 026°16'0 0.4
2017-Nov-14 08:29N 71°08' E 026°17'0 0.8
2017-Nov-14 08:00N 71°09' E 026°16'1 2.1
2017-Nov-14 07:29N 71°08' E 026°14'0 0.6
2017-Nov-14 07:00N 71°08' E 026°13'0 0.8
2017-Nov-14 06:30N 71°08' E 026°13'0 0.4
2017-Nov-14 06:00N 71°08' E 026°13'3 5.5
2017-Nov-14 05:30N 71°06' E 026°06'4 8.4
2017-Nov-14 05:00N 71°04' E 025°57'1 2.8
2017-Nov-14 04:30N 71°03' E 025°54'0 0.0
2017-Nov-14 04:00N 71°03' E 025°54'0 0.0
2017-Nov-14 03:30N 71°03' E 025°54'0 0.0
2017-Nov-14 03:00N 71°03' E 025°54'0 0.0
2017-Nov-14 02:30N 71°03' E 025°54'0 0.0
2017-Nov-14 02:00N 71°03' E 025°54'0 0.0
2017-Nov-14 01:27N 71°03' E 025°54'0 0.0
2017-Nov-14 01:00N 71°03' E 025°54'0 0.0
2017-Nov-14 00:30N 71°03' E 025°54'0 0.0
2017-Nov-14 00:00N 71°03' E 025°54'0 0.0
2017-Nov-13 23:30N 71°03' E 025°54'0 0.0
2017-Nov-13 23:00N 71°03' E 025°54'0 0.0
2017-Nov-13 22:30N 71°03' E 025°54'0 0.0
2017-Nov-13 22:00N 71°03' E 025°54'0 0.0
2017-Nov-13 01:59N 71°03' E 025°54'0 0.0
2017-Nov-13 01:29N 71°03' E 025°54'0 0.0
2017-Nov-13 00:59N 71°03' E 025°54'0 0.0
2017-Nov-13 00:29N 71°03' E 025°54'0 0.0
2017-Nov-12 23:59N 71°03' E 025°54'0 0.0
2017-Nov-12 23:29N 71°03' E 025°54'0 0.0
2017-Nov-12 22:59N 71°03' E 025°54'0 0.0
2017-Nov-12 22:29N 71°03' E 025°54'0 0.0
2017-Nov-12 21:59N 71°03' E 025°54'0 0.0
2017-Nov-12 21:29N 71°03' E 025°54'0 0.0
2017-Nov-12 20:59N 71°03' E 025°54'0 0.0
2017-Nov-12 20:29N 71°03' E 025°54'0 0.0
2017-Nov-12 19:59N 71°03' E 025°54'0 0.0
2017-Nov-12 19:29N 71°03' E 025°54'0 0.0
2017-Nov-12 18:59N 71°03' E 025°54'0 0.0
2017-Nov-12 18:29N 71°03' E 025°54'0 0.0
2017-Nov-12 17:59N 71°03' E 025°54'0 0.0
2017-Nov-12 17:29N 71°03' E 025°54'0 0.0
2017-Nov-12 16:59N 71°03' E 025°54'0 0.0
2017-Nov-12 16:29N 71°03' E 025°54'0 0.0
2017-Nov-12 15:59N 71°03' E 025°54'0 0.0
2017-Nov-12 15:29N 71°03' E 025°54'0 0.0
2017-Nov-12 14:59N 71°03' E 025°54'0 0.0
2017-Nov-12 14:29N 71°03' E 025°54'0 0.0
2017-Nov-12 13:59N 71°03' E 025°54'0 0.0
2017-Nov-12 13:29N 71°03' E 025°54'0 0.0
2017-Nov-12 12:59N 71°03' E 025°54'0 0.0
2017-Nov-12 12:29N 71°03' E 025°54'0 0.0
2017-Nov-12 11:59N 71°03' E 025°54'0 0.0
2017-Nov-12 11:29N 71°03' E 025°54'0 0.0
2017-Nov-12 10:59N 71°03' E 025°54'0 0.0
2017-Nov-12 10:29N 71°03' E 025°54'0 0.0
2017-Nov-12 09:59N 71°03' E 025°54'0 0.0
2017-Nov-12 09:29N 71°03' E 025°54'0 0.0
2017-Nov-12 08:59N 71°03' E 025°54'0 0.0
2017-Nov-12 08:29N 71°03' E 025°54'0 0.0
2017-Nov-12 07:56N 71°03' E 025°54'0 0.0
2017-Nov-12 07:26N 71°03' E 025°54'0 0.0
2017-Nov-12 06:59N 71°03' E 025°54'0 0.0
2017-Nov-12 06:29N 71°03' E 025°54'0 0.0
2017-Nov-12 05:59N 71°03' E 025°54'0 0.0
2017-Nov-12 05:29N 71°03' E 025°54'0 0.0
2017-Nov-12 04:59N 71°03' E 025°54'0 0.0
2017-Nov-12 04:29N 71°03' E 025°54'0 0.0
2017-Nov-12 03:59N 71°03' E 025°54'0 0.0
2017-Nov-12 03:29N 71°03' E 025°54'0 0.0
2017-Nov-12 02:59N 71°03' E 025°54'0 0.0
2017-Nov-12 02:29N 71°03' E 025°54'0 0.0
2017-Nov-12 01:59N 71°03' E 025°54'0 0.0
2017-Nov-12 01:29N 71°03' E 025°54'0 0.0
2017-Nov-12 00:56N 71°03' E 025°54'0 0.0
2017-Nov-12 00:29N 71°03' E 025°54'0 0.0
2017-Nov-11 23:59N 71°03' E 025°54'0 0.0
2017-Nov-11 23:29N 71°03' E 025°54'0 0.0
2017-Nov-11 22:59N 71°03' E 025°54'0 0.0
2017-Nov-11 22:29N 71°03' E 025°54'0 0.0
2017-Nov-11 21:59N 71°03' E 025°54'0 0.0
2017-Nov-11 21:29N 71°03' E 025°54'0 0.0
2017-Nov-11 20:59N 71°03' E 025°54'0 0.0
2017-Nov-11 20:29N 71°03' E 025°54'0 0.0
2017-Nov-11 19:59N 71°03' E 025°54'0 0.0
2017-Nov-11 19:29N 71°03' E 025°54'0 0.0
2017-Nov-11 18:59N 71°03' E 025°54'0 0.0
2017-Nov-11 18:29N 71°03' E 025°54'0 0.0
2017-Nov-11 17:59N 71°03' E 025°54'0 0.0
2017-Nov-11 17:29N 71°03' E 025°54'0 0.0
2017-Nov-11 16:59N 71°03' E 025°54'0 0.0
2017-Nov-11 16:26N 71°03' E 025°54'0 0.0
2017-Nov-11 15:56N 71°03' E 025°54'0 0.0
2017-Nov-11 15:29N 71°03' E 025°54'0 0.0
2017-Nov-11 14:59N 71°03' E 025°54'0 0.0
2017-Nov-11 14:29N 71°03' E 025°54'0 0.0
2017-Nov-11 13:59N 71°03' E 025°54'0 0.0
2017-Nov-11 13:29N 71°03' E 025°54'0 0.0
2017-Nov-11 12:59N 71°03' E 025°54'0 0.0
2017-Nov-11 12:29N 71°03' E 025°54'0 0.0
2017-Nov-11 11:59N 71°03' E 025°54'0 0.0
2017-Nov-11 11:29N 71°03' E 025°54'0 0.0
2017-Nov-11 10:59N 71°03' E 025°54'0 0.0
2017-Nov-11 10:29N 71°03' E 025°54'0 0.0
2017-Nov-11 09:59N 71°03' E 025°54'0 0.0
2017-Nov-11 09:29N 71°03' E 025°54'0 0.0
2017-Nov-11 08:59N 71°03' E 025°54'0 0.0
2017-Nov-11 08:29N 71°03' E 025°54'0 0.0
2017-Nov-11 07:59N 71°03' E 025°54'0 0.0
2017-Nov-11 07:29N 71°03' E 025°54'0 0.0
2017-Nov-11 06:59N 71°03' E 025°54'0 0.0
2017-Nov-11 06:29N 71°03' E 025°54'0 0.0
2017-Nov-11 05:59N 71°03' E 025°54'0 0.0
2017-Nov-11 05:29N 71°03' E 025°54'0 0.0
2017-Nov-11 04:59N 71°03' E 025°54'0 0.0
2017-Nov-11 04:29N 71°03' E 025°54'0 0.0
2017-Nov-11 03:59N 71°03' E 025°54'0 0.0
2017-Nov-11 03:29N 71°03' E 025°54'0 0.0
2017-Nov-11 02:59N 71°03' E 025°54'0 0.0
2017-Nov-11 02:29N 71°03' E 025°54'0 0.0
2017-Nov-11 01:59N 71°03' E 025°54'0 0.0
2017-Nov-11 01:29N 71°03' E 025°54'0 0.0
2017-Nov-11 00:59N 71°03' E 025°54'0 0.0
2017-Nov-11 00:29N 71°03' E 025°54'0 0.0
2017-Nov-10 23:59N 71°03' E 025°54'0 0.0
2017-Nov-10 23:29N 71°03' E 025°54'0 0.0
2017-Nov-10 23:00N 71°03' E 025°54'0 0.0
2017-Nov-10 22:30N 71°03' E 025°54'0 0.0
2017-Nov-10 21:59N 71°03' E 025°54'0 0.0
2017-Nov-10 21:30N 71°03' E 025°54'0 0.0
2017-Nov-10 21:00N 71°03' E 025°54'0 0.0
2017-Nov-10 20:30N 71°03' E 025°54'0 0.0
2017-Nov-10 20:00N 71°03' E 025°54'0 0.0
2017-Nov-10 19:30N 71°03' E 025°54'0 0.0
2017-Nov-10 19:00N 71°03' E 025°54'0 0.0
2017-Nov-10 18:30N 71°03' E 025°54'0 0.0
2017-Nov-10 18:00N 71°03' E 025°54'0 0.0
2017-Nov-10 17:30N 71°03' E 025°54'0 0.0
2017-Nov-10 17:00N 71°03' E 025°54'0 0.0
2017-Nov-10 16:27N 71°03' E 025°54'0 0.0
2017-Nov-10 16:00N 71°03' E 025°54'0 0.0
2017-Nov-10 15:30N 71°03' E 025°54'0 0.0
2017-Nov-10 15:00N 71°03' E 025°54'0 0.0
2017-Nov-10 14:30N 71°03' E 025°54'0 0.0
2017-Nov-10 14:00N 71°03' E 025°54'0 0.0
2017-Nov-10 13:27N 71°03' E 025°54'0 0.0
2017-Nov-10 13:00N 71°03' E 025°54'0 0.0
2017-Nov-10 12:30N 71°03' E 025°54'0 0.0
2017-Nov-10 12:00N 71°03' E 025°54'0 0.0
2017-Nov-10 11:30N 71°03' E 025°54'0 0.0
2017-Nov-10 10:59N 71°03' E 025°54'2 3.5
2017-Nov-10 10:30N 71°04' E 025°57'4 7.6
2017-Nov-10 09:59N 71°06' E 026°08'3 5.8
2017-Nov-10 09:30N 71°08' E 026°15'1 1.1
2017-Nov-10 09:00N 71°08' E 026°13'2 3.2
2017-Nov-10 08:29N 71°08' E 026°18'0 0.9
2017-Nov-10 07:59N 71°09' E 026°17'0 0.5
2017-Nov-10 07:30N 71°09' E 026°17'1 1.6
2017-Nov-10 07:00N 71°08' E 026°19'0 0.8
2017-Nov-10 06:29N 71°09' E 026°18'1 1.2
2017-Nov-10 05:59N 71°09' E 026°16'4 8.1
2017-Nov-10 05:30N 71°06' E 026°06'4 8.2
2017-Nov-10 05:00N 71°04' E 025°57'1 2.7
2017-Nov-10 04:30N 71°03' E 025°54'0 0.0
2017-Nov-10 04:00N 71°03' E 025°54'0 0.0
2017-Nov-10 03:30N 71°03' E 025°54'0 0.0
2017-Nov-10 03:00N 71°03' E 025°54'0 0.0
2017-Nov-10 02:30N 71°03' E 025°54'0 0.0
2017-Nov-10 02:00N 71°03' E 025°54'0 0.0
2017-Nov-10 01:31N 71°03' E 025°54'0 0.0
2017-Nov-10 01:00N 71°03' E 025°54'0 0.0
2017-Nov-10 00:30N 71°03' E 025°54'0 0.0
2017-Nov-10 00:01N 71°03' E 025°54'0 0.0
2017-Nov-09 23:30N 71°03' E 025°54'0 0.0
2017-Nov-09 23:00N 71°03' E 025°54'0 0.0
2017-Nov-09 22:30N 71°03' E 025°54'0 0.0
2017-Nov-09 22:00N 71°03' E 025°54'0 0.0
2017-Nov-09 21:31N 71°03' E 025°54'0 0.0
2017-Nov-09 21:01N 71°03' E 025°54'0 0.0
2017-Nov-09 20:30N 71°03' E 025°54'0 0.0
2017-Nov-09 20:01N 71°03' E 025°54'0 0.0
2017-Nov-09 19:31N 71°03' E 025°54'0 0.0
2017-Nov-09 19:01N 71°03' E 025°54'0 0.0
2017-Nov-09 18:25N 71°03' E 025°54'0 0.0
2017-Nov-09 17:58N 71°03' E 025°54'0 0.0
2017-Nov-09 17:28N 71°03' E 025°54'0 0.0
2017-Nov-09 17:01N 71°03' E 025°54'0 0.0
2017-Nov-09 16:28N 71°03' E 025°54'0 0.0
2017-Nov-09 15:58N 71°03' E 025°54'0 0.0
2017-Nov-09 15:28N 71°03' E 025°54'0 0.0
2017-Nov-09 14:58N 71°03' E 025°54'0 0.0
2017-Nov-09 14:25N 71°03' E 025°54'0 0.0
2017-Nov-09 13:58N 71°03' E 025°54'0 0.0
2017-Nov-09 13:28N 71°03' E 025°54'0 0.0
2017-Nov-09 12:58N 71°03' E 025°54'0 0.0
2017-Nov-09 12:28N 71°03' E 025°54'0 0.0
2017-Nov-09 11:58N 71°03' E 025°54'0 0.0
2017-Nov-09 11:28N 71°03' E 025°54'0 0.0
2017-Nov-09 10:58N 71°03' E 025°54'0 0.2
2017-Nov-09 10:30N 71°03' E 025°54'4 8.0
2017-Nov-09 10:00N 71°05' E 026°02'4 7.6
2017-Nov-09 09:30N 71°08' E 026°12'1 2.3
2017-Nov-09 08:59N 71°09' E 026°13'0 0.7
2017-Nov-09 08:30N 71°09' E 026°12'1 2.0
2017-Nov-09 08:00N 71°08' E 026°14'0 0.4
2017-Nov-09 07:28N 71°08' E 026°13'1 2.1
2017-Nov-09 07:00N 71°09' E 026°15'1 1.5
2017-Nov-09 06:30N 71°09' E 026°17'0 0.3
2017-Nov-09 06:00N 71°09' E 026°17'4 8.2
2017-Nov-09 05:30N 71°06' E 026°07'4 8.4
2017-Nov-09 05:00N 71°04' E 025°57'1 2.9
2017-Nov-09 04:30N 71°03' E 025°54'0 0.0
2017-Nov-09 04:00N 71°03' E 025°54'0 0.0
2017-Nov-09 03:30N 71°03' E 025°54'0 0.0
2017-Nov-09 03:00N 71°03' E 025°54'0 0.0
2017-Nov-09 02:30N 71°03' E 025°54'0 0.0
2017-Nov-09 02:00N 71°03' E 025°54'0 0.0
2017-Nov-09 01:24N 71°03' E 025°54'0 0.0
2017-Nov-09 01:00N 71°03' E 025°54'0 0.0
2017-Nov-09 00:30N 71°03' E 025°54'0 0.0
2017-Nov-09 00:00N 71°03' E 025°54'0 0.0
2017-Nov-08 23:30N 71°03' E 025°54'0 0.0
2017-Nov-08 23:00N 71°03' E 025°54'0 0.0
2017-Nov-08 22:30N 71°03' E 025°54'0 0.0
2017-Nov-08 22:00N 71°03' E 025°54'0 0.0
2017-Nov-08 21:30N 71°03' E 025°54'0 0.0
2017-Nov-08 21:00N 71°03' E 025°54'0 0.0
2017-Nov-08 20:30N 71°03' E 025°54'0 0.0
2017-Nov-08 20:00N 71°03' E 025°54'0 0.0
2017-Nov-08 19:30N 71°03' E 025°54'0 0.0
2017-Nov-08 19:00N 71°03' E 025°54'0 0.0
2017-Nov-08 18:30N 71°03' E 025°54'0 0.0
2017-Nov-08 18:00N 71°03' E 025°54'0 0.0
2017-Nov-08 17:30N 71°03' E 025°54'0 0.0
2017-Nov-08 17:00N 71°03' E 025°54'0 0.0
2017-Nov-08 16:30N 71°03' E 025°54'0 0.0
2017-Nov-08 16:00N 71°03' E 025°54'0 0.0
2017-Nov-08 15:30N 71°03' E 025°54'0 0.0
2017-Nov-08 15:00N 71°03' E 025°54'0 0.0
2017-Nov-08 14:30N 71°03' E 025°54'0 0.0
2017-Nov-08 13:30N 71°03' E 025°54'0 0.0
2017-Nov-08 12:36N 71°03' E 025°54'0 0.0
2017-Nov-08 12:27N 71°03' E 025°54'0 0.0
2017-Nov-08 11:48N 71°03' E 025°54'8 3.1
2017-Nov-08 09:05N 71°08' E 026°13'0 2.1
2017-Nov-08 09:00N 71°08' E 026°14'0 0.2
2017-Nov-08 08:30N 71°08' E 026°14'1 1.2
2017-Nov-08 08:00N 71°09' E 026°13'0 0.3
2017-Nov-08 07:30N 71°09' E 026°12'1 1.1
2017-Nov-08 07:00N 71°09' E 026°14'1 1.8
2017-Nov-08 06:30N 71°09' E 026°17'0 0.6
2017-Nov-08 06:00N 71°09' E 026°16'4 8.2
2017-Nov-08 05:29N 71°06' E 026°06'4 8.2
2017-Nov-08 05:00N 71°04' E 025°57'1 2.6
2017-Nov-08 04:28N 71°03' E 025°54'0 0.0
2017-Nov-08 03:58N 71°03' E 025°54'0 0.0
2017-Nov-08 03:28N 71°03' E 025°54'0 0.0
2017-Nov-08 02:58N 71°03' E 025°54'0 0.0
2017-Nov-08 02:28N 71°03' E 025°54'0 0.0
2017-Nov-08 01:58N 71°03' E 025°54'0 0.0
2017-Nov-08 01:28N 71°03' E 025°54'0 0.0
2017-Nov-08 00:58N 71°03' E 025°54'0 0.0
2017-Nov-08 00:28N 71°03' E 025°54'0 0.0
2017-Nov-07 22:40N 71°03' E 025°54'0 0.0
2017-Nov-07 22:28N 71°03' E 025°54'0 0.0
2017-Nov-07 21:58N 71°03' E 025°54'0 0.0
2017-Nov-07 21:28N 71°03' E 025°54'0 0.0
2017-Nov-07 20:58N 71°03' E 025°54'0 0.0
2017-Nov-07 20:28N 71°03' E 025°54'0 0.0
2017-Nov-07 19:58N 71°03' E 025°54'0 0.0
2017-Nov-07 19:28N 71°03' E 025°54'0 0.0
2017-Nov-07 18:58N 71°03' E 025°54'0 0.0
2017-Nov-07 18:28N 71°03' E 025°54'0 0.0
2017-Nov-07 17:58N 71°03' E 025°54'0 0.0
2017-Nov-07 17:28N 71°03' E 025°54'0 0.0
2017-Nov-07 16:58N 71°03' E 025°54'0 0.0
2017-Nov-07 16:28N 71°03' E 025°54'0 0.0
2017-Nov-07 15:58N 71°03' E 025°54'0 0.0
2017-Nov-07 15:25N 71°03' E 025°54'0 0.0
2017-Nov-07 14:58N 71°03' E 025°54'0 0.0
2017-Nov-07 14:28N 71°03' E 025°54'0 0.0
2017-Nov-07 13:55N 71°03' E 025°54'1 1.8
2017-Nov-07 13:30N 71°03' E 025°55'4 8.4
2017-Nov-07 13:00N 71°06' E 026°05'4 7.0
2017-Nov-07 12:29N 71°08' E 026°14'1 2.3
2017-Nov-07 12:00N 71°09' E 026°16'3 4.9
2017-Nov-07 11:29N 71°07' E 026°10'4 7.5
2017-Nov-07 11:00N 71°05' E 026°02'3 6.6
2017-Nov-07 10:29N 71°03' E 025°54'0 0.0
2017-Nov-07 09:56N 71°03' E 025°54'0 0.0
2017-Nov-07 09:29N 71°03' E 025°54'0 0.0
2017-Nov-07 08:59N 71°03' E 025°54'0 0.0
2017-Nov-07 08:26N 71°03' E 025°54'0 0.0
2017-Nov-07 07:53N 71°03' E 025°54'0 0.0
2017-Nov-07 07:29N 71°03' E 025°54'0 0.0
2017-Nov-07 06:59N 71°03' E 025°54'0 0.0
2017-Nov-07 06:29N 71°03' E 025°54'0 0.0
2017-Nov-07 05:59N 71°03' E 025°54'0 0.0
2017-Nov-07 05:29N 71°03' E 025°54'0 0.0
2017-Nov-07 04:59N 71°03' E 025°54'0 0.0
2017-Nov-07 04:29N 71°03' E 025°54'0 0.0
2017-Nov-07 03:59N 71°03' E 025°54'0 0.0
2017-Nov-07 03:29N 71°03' E 025°54'0 0.0
2017-Nov-07 02:59N 71°03' E 025°54'0 0.0
2017-Nov-07 02:29N 71°03' E 025°54'0 0.0
2017-Nov-07 01:59N 71°03' E 025°54'0 0.0
2017-Nov-07 01:26N 71°03' E 025°54'0 0.0
2017-Nov-07 00:59N 71°03' E 025°54'0 0.0
2017-Nov-07 00:23N 71°03' E 025°54'0 0.0
2017-Nov-06 23:59N 71°03' E 025°54'0 0.0
2017-Nov-06 23:29N 71°03' E 025°54'0 0.0
2017-Nov-06 22:59N 71°03' E 025°54'0 0.0
2017-Nov-06 22:29N 71°03' E 025°54'0 0.0
2017-Nov-06 21:59N 71°03' E 025°54'0 0.0
2017-Nov-06 21:29N 71°03' E 025°54'0 0.0
2017-Nov-06 20:59N 71°03' E 025°54'0 0.0
2017-Nov-06 20:29N 71°03' E 025°54'  

Dump ship's entire track history